Flight Track Log - Related Links

Times and Time Zones

All times are in EDT time to prevent confusion due to time zone crossing. See the EJA951 flight status page for this flight to view local times or setup timezone preferences in your user account.

Time Position Orientation Groundspeed Altitude Reporting Facility
EDT Latitude Longitude Course Direction KTS MPH feet Rate Location/Type
Sun 10:28:15 AM 39.6194 -106.9750 99° East 215 247 9,600  Level Denver Center
Sun 10:29:17 AM 39.6106 -107.0436 260° West 236 272 12,600 3,073 Climbing Denver Center
Sun 10:30:18 AM 39.6747 -107.0419 North 240 276 15,900 2,613 Climbing Denver Center
Sun 10:31:21 AM 39.7408 -107.0706 342° North 245 282 18,000 1,548 Climbing Denver Center
Sun 10:32:00 AM 39.8995 -105.8807 105° East  Level FlightAware Approximate
Sun 10:32:22 AM 39.7983 -107.0006 43° Northeast 317 365 19,100  Level Denver Center
Sun 10:33:00 AM 39.8710 -105.7010 99° East  Level FlightAware Approximate
Sun 10:33:23 AM 39.8186 -106.8714 78° East 391 450 20,200  Level Denver Center
Sun 10:34:25 AM 39.8114 -106.7222 94° East 406 467 22,100 2,081 Climbing Denver Center
Sun 10:35:27 AM 39.8036 -106.5692 94° East 415 478 24,500 1,935 Climbing Denver Center
Sun 10:36:29 AM 39.7967 -106.4194 93° East 419 482 26,100 1,659 Climbing Denver Center
Sun 10:37:30 AM 39.7886 -106.2597 94° East 438 504 27,900 1,951 Climbing Denver Center
Sun 10:38:32 AM 39.7764 -106.0622 95° East 455 524 30,100 2,129 Climbing Denver Center
Sun 10:39:34 AM 39.7683 -105.8972 94° East 460 529 32,300 2,032 Climbing Denver Center
Sun 10:40:36 AM 39.7589 -105.7333 94° East 458 527 34,300 1,645 Climbing Denver Center
Sun 10:41:38 AM 39.7597 -105.5667 90° East 461 531 35,700 1,366 Climbing Denver Center
Sun 10:42:39 AM 39.7603 -105.3953 90° East 470 541 37,100 1,317 Climbing Denver Center
Sun 10:43:41 AM 39.7608 -105.2200 90° East 482 555 38,400 645 Climbing Denver Center
Sun 10:45:45 AM 39.7597 -104.8225 90° East 507 583 39,100 516 Climbing Denver Center
Sun 10:46:47 AM 39.7589 -104.6317 90° East 512 589 40,000 919 Climbing Denver Center
Sun 10:47:49 AM 39.7586 -104.4439 90° East 513 590 41,000 488 Climbing Denver Center
Sun 10:48:50 AM 39.7572 -104.2592 91° East 510 587 41,000  Level Denver Center
Sun 10:49:52 AM 39.7619 -104.0733 88° East 512 589 41,000  Level Denver Center
Sun 10:50:54 AM 39.7683 -103.8844 87° East 520 598 41,000  Level Denver Center
Sun 10:51:56 AM 39.7742 -103.6972 88° East 520 598 41,000  Level Denver Center
Sun 10:52:58 AM 39.7792 -103.5097 88° East 520 598 41,000  Level Denver Center
Sun 10:54:00 AM 39.7853 -103.3211 88° East 520 598 41,000  Level Denver Center
Sun 10:55:02 AM 39.7906 -103.0947 88° East 525 604 41,000  Level Denver Center
Sun 10:56:03 AM 39.7956 -102.9042 88° East 525 604 41,000  Level Denver Center
Sun 10:57:05 AM 39.8000 -102.7142 88° East 526 605 41,000  Level Denver Center
Sun 10:58:07 AM 39.8050 -102.5050 88° East 526 605 41,000  Level Denver Center
Sun 10:59:09 AM 39.8083 -102.3233 89° East 527 606 41,000  Level Denver Center
Sun 11:00:11 AM 39.8117 -102.1083 89° East 530 610 41,000  Level Denver Center
Sun 11:01:13 AM 39.8144 -101.9239 89° East 532 612 41,000  Level Denver Center
Sun 11:02:15 AM 39.8161 -101.7408 89° East 533 613 41,000  Level Denver Center
Sun 11:03:17 AM 39.8197 -101.5264 89° East 532 612 41,000  Level Denver Center
Sun 11:04:19 AM 39.8206 -101.3425 90° East 532 612 41,000  Level Denver Center
Sun 11:05:21 AM 39.8228 -101.1261 89° East 535 616 41,000  Level Denver Center
Sun 11:06:23 AM 39.8236 -100.9419 90° East 535 616 41,000  Level Denver Center
Sun 11:07:25 AM 39.8253 -100.7314 89° East 528 608 41,000  Level Denver Center
Sun 11:08:27 AM 39.8264 -100.5506 89° East 527 606 41,000  Level Denver Center
Sun 11:09:29 AM 39.8275 -100.3378 90° East 527 606 41,000  Level Denver Center
Sun 11:10:31 AM 39.8272 -100.1603 90° East 527 606 41,000  Level Denver Center
Sun 11:11:33 AM 39.8269 -99.9692 90° East 528 608 41,000  Level Denver Center
Sun 11:12:35 AM 39.8264 -99.7417 90° East 527 606 41,000  Level Denver Center
Sun 11:13:37 AM 39.8250 -99.5519 90° East 527 606 41,000  Level Denver Center
Sun 11:14:39 AM 39.8239 -99.3625 90° East 527 606 41,000  Level Denver Center
Sun 11:15:41 AM 39.8228 -99.1731 90° East 526 605 41,000  Level Denver Center
Sun 11:16:43 AM 39.8208 -98.9856 91° East 524 603 41,000  Level Denver Center
Sun 11:17:48 AM 39.8172 -98.7586 91° East 524 603 41,000  Level Minneapolis Center
Sun 11:18:50 AM 39.8156 -98.5708 91° East 524 603 41,000  Level Minneapolis Center
Sun 11:19:51 AM 39.8114 -98.3822 92° East 524 603 41,000  Level Minneapolis Center
Sun 11:20:53 AM 39.8086 -98.1925 91° East 524 603 41,000  Level Minneapolis Center
Sun 11:21:54 AM 39.8053 -98.0053 91° East 524 603 41,000  Level Minneapolis Center
Sun 11:22:56 AM 39.8011 -97.8169 92° East 524 603 41,000  Level Minneapolis Center
Sun 11:23:57 AM 39.7972 -97.6278 91° East 524 603 41,000  Level Minneapolis Center
Sun 11:24:58 AM 39.7925 -97.3989 91° East 525 604 41,000  Level Minneapolis Center
Sun 11:26:00 AM 39.7867 -97.2050 92° East 528 608 41,000  Level Minneapolis Center
Sun 11:27:10 AM 39.7836 -96.9900 91° East 532 612 41,000  Level Kansas City Center
Sun 11:28:11 AM 39.7781 -96.7919 92° East 534 615 41,000  Level Kansas City Center
Sun 11:29:14 AM 39.7731 -96.6064 92° East 534 615 41,000  Level Kansas City Center
Sun 11:30:15 AM 39.7658 -96.3892 92° East 536 617 41,000  Level Kansas City Center
Sun 11:31:16 AM 39.7597 -96.2028 92° East 537 618 41,000  Level Kansas City Center
Sun 11:32:19 AM 39.7522 -96.0169 93° East 538 619 41,000  Level Kansas City Center
Sun 11:33:20 AM 39.7444 -95.7989 93° East 538 619 41,000  Level Kansas City Center
Sun 11:34:21 AM 39.7361 -95.6125 93° East 538 619 41,000  Level Kansas City Center
Sun 11:35:25 AM 39.7275 -95.3928 93° East 539 620 41,000  Level Kansas City Center
Sun 11:36:26 AM 39.7189 -95.2042 93° East 540 621 41,000  Level Kansas City Center
Sun 11:37:28 AM 39.7106 -95.0164 93° East 540 621 41,000  Level Kansas City Center
Sun 11:38:29 AM 39.7006 -94.7981 93° East 541 623 41,000  Level Kansas City Center
Sun 11:39:30 AM 39.6925 -94.6083 93° East 541 623 41,000  Level Kansas City Center
Sun 11:40:31 AM 39.6808 -94.3892 94° East 542 624 41,000  Level Kansas City Center
Sun 11:41:35 AM 39.6719 -94.2011 93° East 544 626 41,000  Level Kansas City Center
Sun 11:42:35 AM 39.6619 -94.0122 94° East 544 626 41,000  Level Kansas City Center
Sun 11:43:39 AM 39.6492 -93.7919 94° East 545 627 41,000  Level Kansas City Center
Sun 11:44:39 AM 39.6403 -93.6128 94° East 546 628 41,000  Level Kansas City Center
Sun 11:45:40 AM 39.6269 -93.3781 94° East 548 631 41,000  Level Kansas City Center
Sun 11:46:44 AM 39.6153 -93.1850 94° East 547 629 41,000  Level Kansas City Center
Sun 11:47:44 AM 39.6031 -92.9894 95° East 547 629 41,000  Level Kansas City Center
Sun 11:48:48 AM 39.5906 -92.7958 95° East 548 631 41,000  Level Kansas City Center
Sun 11:49:49 AM 39.5781 -92.6003 95° East 547 629 41,000  Level Kansas City Center
Sun 11:50:49 AM 39.5622 -92.3669 95° East 548 631 41,000  Level Kansas City Center
Sun 11:51:54 AM 39.5486 -92.1683 95° East 548 631 41,000  Level Kansas City Center
Sun 11:52:54 AM 39.5344 -91.9783 95° East 548 631 41,000  Level Kansas City Center
Sun 11:53:55 AM 39.5211 -91.7822 95° East 549 632 41,000  Level Kansas City Center
Sun 11:54:57 AM 39.5050 -91.5642 95° East 550 633 41,000  Level Kansas City Center
Sun 11:56:00 AM 39.4889 -91.3653 96° East 551 634 41,000  Level Kansas City Center
Sun 11:57:03 AM 39.4742 -91.1667 95° East 552 635 41,000  Level Kansas City Center
Sun 11:58:04 AM 39.4581 -90.9667 96° East 553 636 41,000  Level Kansas City Center
Sun 11:59:04 AM 39.4433 -90.7669 95° East 554 638 41,000  Level Kansas City Center
Sun 12:00:08 PM 39.4261 -90.5672 96° East 554 638 41,000  Level Kansas City Center
Sun 12:01:09 PM 39.4061 -90.3269 96° East 556 640 41,000  Level Kansas City Center
Sun 12:02:10 PM 39.3894 -90.1256 96° East 556 640 41,000  Level Kansas City Center
Sun 12:03:10 PM 39.3714 -89.9228 97° East 558 642 41,000  Level Kansas City Center
Sun 12:04:14 PM 39.3531 -89.7194 97° East 563 648 41,000  Level Kansas City Center
Sun 12:05:14 PM 39.3339 -89.5181 97° East 563 648 41,000  Level Kansas City Center
Sun 12:06:17 PM 39.3156 -89.3158 97° East 564 649 41,000  Level Kansas City Center
Sun 12:07:20 PM 39.2958 -89.1150 97° East 564 649 41,000  Level Kansas City Center
Sun 12:08:21 PM 39.2767 -88.9131 97° East 564 649 41,000  Level Kansas City Center
Sun 12:09:22 PM 39.2556 -88.6708 96° East 565 650 41,000  Level Kansas City Center
Sun 12:10:25 PM 39.2381 -88.4972 97° East 565 650 41,000  Level Kansas City Center
Sun 12:11:26 PM 39.2114 -88.2525 98° East 567 652 41,000  Level Kansas City Center
Sun 12:12:29 PM 39.1914 -88.0489 97° East 567 652 41,000  Level Kansas City Center
Sun 12:13:11 PM 39.1761 -87.9306 99° East 569 655 41,000  Level Indianapolis Center
Sun 12:14:13 PM 39.1547 -87.7264 98° East 569 655 41,000  Level Indianapolis Center
Sun 12:15:14 PM 39.1278 -87.4800 98° East 570 656 41,000  Level Indianapolis Center
Sun 12:16:16 PM 39.1039 -87.2764 99° East 570 656 41,000  Level Indianapolis Center
Sun 12:17:18 PM 39.0814 -87.0706 98° East 570 656 41,000  Level Indianapolis Center
Sun 12:18:19 PM 39.0572 -86.8647 99° East 571 657 41,000  Level Indianapolis Center
Sun 12:19:21 PM 39.0333 -86.6606 99° East 572 658 41,000  Level Indianapolis Center
Sun 12:20:23 PM 39.0114 -86.4739 99° East 572 658 41,000  Level Indianapolis Center
Sun 12:21:24 PM 38.9831 -86.2303 98° East 575 662 41,000  Level Indianapolis Center
Sun 12:22:26 PM 38.9567 -86.0258 99° East 579 666 41,000  Level Indianapolis Center
Sun 12:23:28 PM 38.9317 -85.8219 99° East 580 667 41,000  Level Indianapolis Center
Sun 12:24:29 PM 38.9067 -85.6164 99° East 582 670 41,000  Level Indianapolis Center
Sun 12:25:31 PM 38.8794 -85.4097 100° East 586 674 41,000  Level Indianapolis Center
Sun 12:26:32 PM 38.8528 -85.2042 99° East 586 674 41,000  Level Indianapolis Center
Sun 12:27:34 PM 38.8258 -84.9972 99° East 587 676 41,000  Level Indianapolis Center
Sun 12:28:36 PM 38.7914 -84.7517 100° East 587 676 41,000  Level Indianapolis Center
Sun 12:29:37 PM 38.7636 -84.5464 100° East 587 676 41,000  Level Indianapolis Center
Sun 12:30:39 PM 38.7347 -84.3272 100° East 591 680 41,000  Level Indianapolis Center
Sun 12:31:41 PM 38.7053 -84.1203 100° East 592 681 41,000  Level Indianapolis Center
Sun 12:32:42 PM 38.6756 -83.9125 100° East 594 684 41,000  Level Indianapolis Center
Sun 12:33:44 PM 38.6436 -83.6861 100° East 594 684 41,000  Level Indianapolis Center
Sun 12:34:45 PM 38.6128 -83.4792 101° East 594 684 41,000  Level Indianapolis Center
Sun 12:35:47 PM 38.5819 -83.2717 101° East 594 684 41,000  Level Indianapolis Center
Sun 12:36:49 PM 38.5514 -83.0614 100° East 594 684 41,000  Level Indianapolis Center
Sun 12:37:50 PM 38.5189 -82.8528 101° East 595 685 41,000  Level Indianapolis Center
Sun 12:38:52 PM 38.4878 -82.6436 101° East 596 686 41,000  Level Indianapolis Center
Sun 12:39:54 PM 38.4514 -82.4086 101° East 597 687 41,000 -48 Level Indianapolis Center
Sun 12:40:56 PM 38.4181 -82.2003 101° East 598 688 40,900  Descending Indianapolis Center
Sun 12:41:57 PM 38.3856 -81.9914 101° East 600 690 41,000 -390 Climbing Indianapolis Center
Sun 12:42:59 PM 38.3517 -81.7858 102° East 600 690 40,100 -1,742 Descending Indianapolis Center
Sun 12:44:01 PM 38.3200 -81.5847 101° East 592 681 37,400 -2,806 Descending Indianapolis Center
Sun 12:45:03 PM 38.2808 -81.3383 101° East 593 682 34,300 -2,732 Descending Indianapolis Center
Sun 12:46:04 PM 38.2483 -81.1394 102° East 586 674 31,800 -2,390 Descending Indianapolis Center
Sun 12:47:06 PM 38.2169 -80.9408 101° East 581 669 29,400 -1,355 Descending Indianapolis Center
Sun 12:48:08 PM 38.1864 -80.7556 102° East 548 631 29,000 -235 Descending Indianapolis Center
Sun 12:48:48 PM 38.1617 -80.6228 103° East 549 632 29,000  Level Washington Center
Sun 12:49:48 PM 38.1331 -80.4519 102° East 549 632 29,000 -508 Level Washington Center
Sun 12:50:46 PM 38.1033 -80.2572 101° East 554 638 28,000 -1,059 Descending Washington Center
Sun 12:51:47 PM 38.0692 -80.0625 103° East 554 638 26,900 -1,289 Descending Washington Center
Sun 12:52:47 PM 38.0364 -79.8733 102° East 554 638 25,400 -1,714 Descending Washington Center
Sun 12:53:46 PM 38.0072 -79.6953 102° East 533 613 23,500 -2,100 Descending Washington Center
Sun 12:54:47 PM 37.9717 -79.5061 103° East 510 587 21,200 -1,230 Descending Washington Center
Sun 12:55:48 PM 37.9439 -79.3361 102° East 504 580 21,000 -1,059 Descending Washington Center
Sun 12:56:46 PM 37.9136 -79.1636 102° East 494 568 19,100 -1,932 Descending Washington Center
Sun 12:57:46 PM 37.8744 -79.0064 107° East 489 563 17,200 -1,983 Descending Washington Center
Sun 12:58:47 PM 37.8325 -78.8600 110° East 461 531 15,100 -2,033 Descending Washington Center
Sun 12:59:47 PM 37.7925 -78.7242 110° East 434 499 13,100 -1,884 Descending Washington Center
Sun 01:00:48 PM 37.7597 -78.6125 110° East 396 456 11,300 -1,537 Descending Washington Center
Sun 01:01:48 PM 37.7269 -78.5036 111° Southeast 361 415 10,000 -1,068 Descending Washington Center
Sun 01:02:46 PM 37.7003 -78.4028 108° East 321 369 9,200 -508 Descending Washington Center
Sun 01:03:46 PM 37.6731 -78.3125 111° Southeast 297 342 9,000 -99 Descending Washington Center
Sun 01:04:47 PM 37.6442 -78.2092 109° East 284 327 9,000  Level Washington Center
Sun 01:05:48 PM 37.6128 -78.1111 112° Southeast 284 327 9,000  Level Washington Center
Sun 01:06:46 PM 37.5856 -78.0158 110° East 289 333 9,000  Level Washington Center
Sun 01:07:46 PM 37.5583 -77.9233 110° East 289 333 9,000 -645 Level Washington Center
Sun 01:08:47 PM 37.5181 -77.8436 122° Southeast 279 321 7,700  Descending Washington Center
Sun 01:09:48 PM 37.4819 -77.7639 120° Southeast 267 307 9,000 -1,339 Climbing Washington Center
Sun 01:10:48 PM 37.4436 -77.6922 124° Southeast 256 295 5,000 -2,521 Descending Washington Center
Sun 01:11:47 PM 37.4200 -77.6131 111° Southeast 244 281 4,000 -597 Descending Washington Center
Sun 01:14:09 PM 37.3667 -77.4500 112° Southeast 199 229 3,000 -327 Descending Potomac TRACON
Sun 01:15:09 PM 37.3833 -77.3833 73° East 170 196 2,900 -350 Descending Potomac TRACON
Sun 01:16:09 PM 37.4167 -77.3500 38° Northeast 158 182 2,300 -850 Descending Potomac TRACON
Sun 01:17:09 PM 37.4500 -77.3500 360° North 129 148 1,200 -900 Descending Potomac TRACON
Sun 01:18:09 PM 37.4833 -77.3333 22° Northeast 115 132 500 -700 Descending Potomac TRACON
Sun 01:20:00 PM 37.5000 -77.3167 47° Northeast  Level FlightAware Approximate

Login

Don't have an account? Register now (free) for customized features, flight alerts, and more!